createdAt,value
2016-03-05T00:00:10.597Z,22.9
2016-03-05T00:01:10.600Z,22.95
2016-03-05T00:02:10.618Z,22.95
2016-03-05T00:03:10.621Z,22.91
2016-03-05T00:04:10.623Z,22.94
2016-03-05T00:05:10.626Z,22.9
2016-03-05T00:06:10.629Z,22.86
2016-03-05T00:07:10.648Z,22.88
2016-03-05T00:08:10.665Z,22.88
2016-03-05T00:09:10.653Z,22.85
2016-03-05T00:10:10.655Z,22.94
2016-03-05T00:11:10.673Z,22.94
2016-03-05T00:12:10.692Z,22.95
2016-03-05T00:13:10.679Z,22.86
2016-03-05T00:14:10.823Z,22.9
2016-03-05T00:15:10.700Z,22.92
2016-03-05T00:16:10.734Z,22.92
2016-03-05T00:17:10.705Z,22.88
2016-03-05T00:18:10.724Z,22.91
2016-03-05T00:19:10.742Z,23
2016-03-05T00:20:10.728Z,22.83
2016-03-05T00:21:10.725Z,22.92
2016-03-05T00:22:10.716Z,22.94
2016-03-05T00:23:11.192Z,22.88
2016-03-05T00:24:10.714Z,22.88
2016-03-05T00:25:10.705Z,22.92
2016-03-05T00:26:11.029Z,22.92
2016-03-05T00:27:10.715Z,22.9
2016-03-05T00:28:10.732Z,22.86
2016-03-05T00:29:10.731Z,22.92
2016-03-05T00:30:10.600Z,22.92
2016-03-05T00:31:10.724Z,22.86
2016-03-05T00:32:10.742Z,22.94
2016-03-05T00:33:10.758Z,22.86
2016-03-05T00:34:10.745Z,22.92
2016-03-05T00:35:10.730Z,22.83
2016-03-05T00:36:10.763Z,22.86
2016-03-05T00:37:10.765Z,22.91
2016-03-05T00:38:10.767Z,22.94
2016-03-05T00:39:10.768Z,22.95
2016-03-05T00:40:10.770Z,22.88
2016-03-05T00:41:10.787Z,22.94
2016-03-05T00:42:10.776Z,22.97
2016-03-05T00:43:10.794Z,22.95
2016-03-05T00:44:10.796Z,22.85
2016-03-05T00:45:10.815Z,22.98
2016-03-05T00:46:10.801Z,22.95
2016-03-05T00:47:10.820Z,22.8
2016-03-05T00:48:10.822Z,22.9
2016-03-05T00:49:10.826Z,22.86
2016-03-05T00:50:10.859Z,22.9
2016-03-05T00:51:10.846Z,22.91
2016-03-05T00:52:10.848Z,22.95
2016-03-05T00:53:10.867Z,23
2016-03-05T00:54:10.869Z,22.95
2016-03-05T00:55:10.857Z,22.85
2016-03-05T00:56:10.876Z,22.94
2016-03-05T00:57:10.894Z,22.97
2016-03-05T00:58:10.897Z,23.09
2016-03-05T00:59:10.961Z,23
2016-03-05T01:00:10.902Z,22.95
2016-03-05T01:01:10.904Z,22.97
2016-03-05T01:02:10.907Z,22.98
2016-03-05T01:03:10.926Z,23
2016-03-05T01:04:10.928Z,22.95
2016-03-05T01:05:10.947Z,22.98
2016-03-05T01:06:10.933Z,22.92
2016-03-05T01:07:10.952Z,23.09
2016-03-05T01:08:10.954Z,23
2016-03-05T01:09:10.958Z,22.91
2016-03-05T01:10:10.976Z,22.97
2016-03-05T01:11:10.979Z,22.94
2016-03-05T01:12:10.965Z,22.95
2016-03-05T01:13:10.984Z,22.97
2016-03-05T01:14:10.986Z,23.01
2016-03-05T01:15:11.004Z,22.92
2016-03-05T01:16:11.007Z,23
2016-03-05T01:17:11.026Z,23.04
2016-03-05T01:18:11.013Z,23.01
2016-03-05T01:19:11.015Z,23.02
2016-03-05T01:20:11.034Z,23.02
2016-03-05T01:21:11.036Z,23.04
2016-03-05T01:22:11.039Z,23.04
2016-03-05T01:23:11.056Z,22.94
2016-03-05T01:24:11.060Z,22.97
2016-03-05T01:25:10.923Z,22.95
2016-03-05T01:26:11.065Z,22.94
2016-03-05T01:27:11.067Z,22.97
2016-03-05T01:28:11.086Z,23.04
2016-03-05T01:29:11.089Z,23.01
2016-03-05T01:30:11.092Z,23.02
2016-03-05T01:31:11.094Z,23.02
2016-03-05T01:32:11.113Z,23.02
2016-03-05T01:33:11.116Z,22.94
2016-03-05T01:34:11.134Z,22.91
2016-03-05T01:35:11.121Z,23.09
2016-03-05T01:36:11.138Z,23.02
2016-03-05T01:37:11.157Z,22.95
2016-03-05T01:38:11.145Z,22.95
2016-03-05T01:39:11.163Z,22.94
2016-03-05T01:40:11.166Z,22.94
2016-03-05T01:41:11.199Z,22.97
2016-03-05T01:42:11.171Z,23.07
2016-03-05T01:43:11.173Z,23
2016-03-05T01:44:11.192Z,22.98
2016-03-05T01:45:11.195Z,23.01
2016-03-05T01:46:11.198Z,22.97
2016-03-05T01:47:11.201Z,23.04
2016-03-05T01:48:11.218Z,22.94
2016-03-05T01:49:11.252Z,22.95
2016-03-05T01:50:11.254Z,22.98
2016-03-05T01:51:11.226Z,22.95
2016-03-05T01:52:11.244Z,22.94
2016-03-05T01:53:11.248Z,23
2016-03-05T01:54:11.251Z,23.04
2016-03-05T01:55:11.253Z,22.85
2016-03-05T01:56:11.286Z,22.92
2016-03-05T01:57:11.258Z,22.94
2016-03-05T01:58:11.276Z,23.01
2016-03-05T01:59:11.279Z,23
2016-03-05T02:00:11.297Z,22.95
2016-03-05T02:01:11.145Z,23.02
2016-03-05T02:02:11.319Z,22.97
2016-03-05T02:03:11.305Z,23.04
2016-03-05T02:04:11.355Z,23
2016-03-05T02:05:11.326Z,22.95
2016-03-05T02:06:11.330Z,22.91
2016-03-05T02:07:11.333Z,22.98
2016-03-05T02:08:11.335Z,22.97
2016-03-05T02:09:11.353Z,23.01
2016-03-05T02:10:11.355Z,22.95
2016-03-05T02:11:11.374Z,22.95
2016-03-05T02:12:11.360Z,22.97
2016-03-05T02:13:11.379Z,23.01
2016-03-05T02:14:11.383Z,22.94
2016-03-05T02:15:11.401Z,22.98
2016-03-05T02:16:11.404Z,22.9
2016-03-05T02:17:11.425Z,23
2016-03-05T02:18:11.428Z,23
2016-03-05T02:19:11.430Z,23
2016-03-05T02:20:11.433Z,22.91
2016-03-05T02:21:11.435Z,22.92
2016-03-05T02:22:11.438Z,22.98
2016-03-05T02:23:11.442Z,22.92
2016-03-05T02:24:11.444Z,22.95
2016-03-05T02:25:11.447Z,23
2016-03-05T02:26:11.480Z,22.92
2016-03-05T02:27:11.483Z,22.88
2016-03-05T02:28:11.470Z,22.86
2016-03-05T02:29:11.473Z,22.97
2016-03-05T02:30:11.476Z,22.94
2016-03-05T02:31:11.494Z,22.86
2016-03-05T02:32:11.512Z,22.91
2016-03-05T02:33:11.499Z,22.9
2016-03-05T02:34:11.518Z,22.88
2016-03-05T02:35:11.521Z,22.92
2016-03-05T02:36:11.523Z,22.88
2016-03-05T02:37:11.526Z,22.88
2016-03-05T02:38:11.545Z,22.88
2016-03-05T02:39:11.547Z,22.86
2016-03-05T02:40:11.550Z,22.9
2016-03-05T02:41:11.552Z,22.85
2016-03-05T02:42:11.570Z,22.95
2016-03-05T02:43:11.558Z,22.86
2016-03-05T02:44:11.576Z,22.92
2016-03-05T02:45:11.579Z,22.88
2016-03-05T02:46:11.581Z,22.88
2016-03-05T02:47:11.600Z,22.8
2016-03-05T02:48:11.602Z,22.85
2016-03-05T02:49:11.683Z,22.85
2016-03-05T02:50:11.607Z,22.94
2016-03-05T02:51:11.611Z,22.98
2016-03-05T02:52:11.630Z,22.9
2016-03-05T02:53:11.632Z,22.86
2016-03-05T02:54:11.635Z,22.92
2016-03-05T02:55:11.668Z,22.9
2016-03-05T02:56:11.640Z,22.92
2016-03-05T02:57:11.657Z,22.86
2016-03-05T02:58:11.660Z,22.88
2016-03-05T02:59:11.663Z,22.83
2016-03-05T03:00:11.682Z,22.91
2016-03-05T03:01:11.684Z,22.92
2016-03-05T03:02:11.718Z,22.92
2016-03-05T03:03:11.689Z,22.97
2016-03-05T03:04:11.707Z,22.94
2016-03-05T03:05:11.710Z,22.9
2016-03-05T03:06:11.712Z,22.94
2016-03-05T03:07:11.716Z,22.85
2016-03-05T03:08:11.734Z,22.91
2016-03-05T03:09:11.721Z,22.94
2016-03-05T03:10:11.755Z,22.85
2016-03-05T03:11:11.742Z,22.9
2016-03-05T03:12:11.761Z,22.9
2016-03-05T03:13:11.764Z,22.86
2016-03-05T03:14:11.767Z,22.9
2016-03-05T03:15:11.769Z,22.9
2016-03-05T03:16:11.787Z,22.9
2016-03-05T03:17:11.789Z,22.94
2016-03-05T03:18:11.808Z,22.94
2016-03-05T03:19:11.810Z,22.92
2016-03-05T03:20:11.814Z,22.85
2016-03-05T03:21:11.817Z,22.86
2016-03-05T03:22:11.819Z,22.88
2016-03-05T03:23:11.822Z,22.85
2016-03-05T03:24:11.824Z,22.88
2016-03-05T03:25:11.827Z,22.82
2016-03-05T03:26:11.845Z,22.83
2016-03-05T03:27:11.848Z,22.82
2016-03-05T03:28:11.851Z,22.82
2016-03-05T03:29:11.854Z,22.83
2016-03-05T03:30:11.872Z,22.83
2016-03-05T03:31:11.874Z,22.88
2016-03-05T03:32:11.893Z,22.8
2016-03-05T03:33:11.895Z,22.88
2016-03-05T03:34:11.898Z,22.86
2016-03-05T03:35:11.901Z,22.82
2016-03-05T03:36:11.919Z,22.83
2016-03-05T03:37:11.906Z,22.85
2016-03-05T03:38:11.924Z,22.82
2016-03-05T03:39:11.926Z,22.82
2016-03-05T03:40:11.929Z,22.8
2016-03-05T03:41:11.932Z,22.85
2016-03-05T03:42:11.951Z,22.86
2016-03-05T03:43:11.954Z,22.86
2016-03-05T03:44:11.957Z,22.92
2016-03-05T03:45:11.959Z,22.86
2016-03-05T03:46:11.977Z,22.92
2016-03-05T03:47:11.980Z,22.9
2016-03-05T03:48:11.983Z,22.97
2016-03-05T03:49:12.000Z,22.94
2016-03-05T03:50:12.004Z,22.94
2016-03-05T03:51:12.006Z,22.91
2016-03-05T03:52:12.025Z,22.86
2016-03-05T03:53:12.011Z,22.92
2016-03-05T03:54:12.030Z,22.77
2016-03-05T03:55:12.048Z,22.91
2016-03-05T03:56:12.035Z,22.9
2016-03-05T03:57:12.038Z,22.88
2016-03-05T03:58:12.057Z,22.85
2016-03-05T03:59:12.060Z,22.86
2016-03-05T04:00:12.077Z,22.9
2016-03-05T04:01:12.065Z,22.8
2016-03-05T04:02:12.082Z,22.8
2016-03-05T04:03:12.085Z,22.9
2016-03-05T04:04:12.087Z,22.82
2016-03-05T04:05:12.091Z,22.86
2016-03-05T04:06:12.094Z,22.9
2016-03-05T04:07:12.112Z,22.91
2016-03-05T04:08:12.115Z,22.85
2016-03-05T04:09:12.117Z,22.88
2016-03-05T04:10:12.135Z,22.95
2016-03-05T04:11:12.138Z,22.9
2016-03-05T04:12:12.141Z,22.83
2016-03-05T04:13:12.144Z,22.79
2016-03-05T04:14:12.162Z,22.82
2016-03-05T04:15:12.149Z,22.85
2016-03-05T04:16:12.167Z,22.86
2016-03-05T04:17:12.169Z,22.91
2016-03-05T04:18:12.172Z,22.92
2016-03-05T04:19:12.192Z,22.86
2016-03-05T04:20:12.194Z,22.88
2016-03-05T04:21:12.197Z,22.8
2016-03-05T04:22:12.215Z,22.88
2016-03-05T04:23:12.202Z,22.86
2016-03-05T04:24:12.235Z,22.88
2016-03-05T04:25:12.222Z,22.83
2016-03-05T04:26:12.242Z,22.82
2016-03-05T04:27:12.244Z,22.79
2016-03-05T04:28:12.247Z,22.9
2016-03-05T04:29:12.249Z,22.86
2016-03-05T04:30:12.252Z,22.82
2016-03-05T04:31:12.254Z,22.83
2016-03-05T04:32:12.273Z,22.91
2016-03-05T04:33:12.259Z,22.91
2016-03-05T04:34:12.310Z,22.83
2016-03-05T04:35:12.282Z,22.9
2016-03-05T04:36:12.299Z,22.9
2016-03-05T04:37:12.302Z,22.94
2016-03-05T04:38:12.320Z,22.9
2016-03-05T04:39:12.323Z,22.91
2016-03-05T04:40:12.309Z,22.83
2016-03-05T04:41:12.328Z,22.82
2016-03-05T04:42:12.332Z,22.83
2016-03-05T04:43:12.412Z,22.83
2016-03-05T04:44:12.352Z,22.9
2016-03-05T04:45:12.339Z,22.82
2016-03-05T04:46:12.356Z,22.85
2016-03-05T04:47:12.359Z,22.86
2016-03-05T04:48:12.379Z,22.86
2016-03-05T04:49:12.381Z,22.83
2016-03-05T04:50:12.384Z,22.9
2016-03-05T04:51:12.402Z,22.86
2016-03-05T04:52:12.389Z,22.9
2016-03-05T04:53:12.422Z,22.83
2016-03-05T04:54:12.394Z,22.82
2016-03-05T04:55:12.428Z,22.82
2016-03-05T04:56:12.416Z,22.86
2016-03-05T04:57:12.434Z,22.85
2016-03-05T04:58:12.453Z,22.82
2016-03-05T04:59:12.439Z,22.9
2016-03-05T05:00:12.441Z,22.82
2016-03-05T05:01:12.460Z,22.86
2016-03-05T05:02:12.447Z,22.92
2016-03-05T05:03:12.497Z,22.83
2016-03-05T05:04:12.485Z,22.83
2016-03-05T05:05:12.471Z,22.85
2016-03-05T05:06:12.506Z,22.88
2016-03-05T05:07:12.492Z,22.85
2016-03-05T05:08:12.339Z,22.8
2016-03-05T05:09:12.497Z,22.73
2016-03-05T05:10:12.517Z,22.82
2016-03-05T05:11:12.520Z,22.85
2016-03-05T05:12:12.522Z,22.82
2016-03-05T05:13:12.525Z,22.79
2016-03-05T05:14:12.558Z,22.83
2016-03-05T05:15:12.546Z,22.8
2016-03-05T05:16:12.563Z,22.9
2016-03-05T05:17:12.551Z,22.88
2016-03-05T05:18:12.569Z,22.94
2016-03-05T05:19:12.572Z,22.83
2016-03-05T05:20:12.575Z,22.91
2016-03-05T05:21:12.577Z,22.85
2016-03-05T05:22:12.596Z,22.94
2016-03-05T05:23:12.582Z,22.8
2016-03-05T05:24:12.601Z,22.83
2016-03-05T05:25:12.603Z,22.85
2016-03-05T05:26:12.607Z,22.91
2016-03-05T05:27:12.626Z,22.83
2016-03-05T05:28:12.628Z,22.86
2016-03-05T05:29:12.631Z,22.79
2016-03-05T05:30:12.633Z,22.86
2016-03-05T05:31:12.651Z,22.83
2016-03-05T05:32:12.654Z,22.9
2016-03-05T05:33:12.656Z,22.94
2016-03-05T05:34:12.659Z,22.94
2016-03-05T05:35:12.661Z,22.88
2016-03-05T05:36:12.681Z,22.92
2016-03-05T05:37:12.683Z,22.91
2016-03-05T05:38:12.700Z,22.85
2016-03-05T05:39:12.688Z,22.85
2016-03-05T05:40:12.722Z,22.88
2016-03-05T05:41:12.709Z,22.9
2016-03-05T05:42:12.728Z,22.9
2016-03-05T05:43:12.714Z,22.88
2016-03-05T05:44:12.733Z,22.9
2016-03-05T05:45:12.736Z,22.8
2016-03-05T05:46:12.738Z,22.79
2016-03-05T05:47:12.757Z,22.92
2016-03-05T05:48:12.743Z,22.85
2016-03-05T05:49:12.763Z,22.88
2016-03-05T05:50:12.640Z,22.86
2016-03-05T05:51:12.627Z,22.88
2016-03-05T05:52:12.801Z,22.82
2016-03-05T05:53:12.773Z,22.83
2016-03-05T05:54:12.806Z,22.85
2016-03-05T05:55:12.794Z,22.82
2016-03-05T05:56:12.797Z,22.82
2016-03-05T05:57:12.815Z,22.9
2016-03-05T05:58:12.818Z,22.92
2016-03-05T05:59:12.820Z,22.8
2016-03-05T06:00:12.839Z,22.83
2016-03-05T06:01:12.842Z,22.82
2016-03-05T06:02:12.844Z,22.9
2016-03-05T06:03:12.863Z,22.79
2016-03-05T06:04:12.850Z,22.83
2016-03-05T06:05:12.915Z,22.82
2016-03-05T06:06:12.870Z,22.88
2016-03-05T06:07:12.873Z,22.9
2016-03-05T06:08:12.892Z,22.8
2016-03-05T06:09:12.878Z,22.9
2016-03-05T06:10:12.897Z,22.85
2016-03-05T06:11:12.900Z,22.9
2016-03-05T06:12:12.965Z,22.83
2016-03-05T06:13:12.905Z,22.79
2016-03-05T06:14:12.923Z,22.79
2016-03-05T06:15:12.941Z,22.79
2016-03-05T06:16:12.928Z,22.8
2016-03-05T06:17:12.946Z,22.94
2016-03-05T06:18:12.949Z,22.9
2016-03-05T06:19:12.953Z,22.88
2016-03-05T06:20:12.986Z,22.9
2016-03-05T06:21:12.974Z,22.86
2016-03-05T06:22:12.960Z,22.86
2016-03-05T06:23:12.978Z,22.88
2016-03-05T06:24:12.981Z,22.91
2016-03-05T06:25:12.984Z,22.92
2016-03-05T06:26:12.987Z,22.94
2016-03-05T06:27:13.037Z,22.9
2016-03-05T06:28:13.024Z,22.9
2016-03-05T06:29:13.026Z,22.94
2016-03-05T06:30:13.012Z,22.86
2016-03-05T06:31:13.031Z,22.88
2016-03-05T06:32:13.582Z,22.86
2016-03-05T06:33:13.037Z,22.94
2016-03-05T06:34:13.055Z,22.91
2016-03-05T06:35:13.059Z,22.86
2016-03-05T06:36:13.076Z,22.8
2016-03-05T06:37:13.063Z,22.8
2016-03-05T06:38:13.081Z,22.91
2016-03-05T06:39:13.084Z,22.91
2016-03-05T06:40:13.087Z,22.86
2016-03-05T06:41:13.090Z,22.94
2016-03-05T06:42:13.123Z,22.88
2016-03-05T06:43:13.095Z,22.91
2016-03-05T06:44:13.128Z,22.92
2016-03-05T06:45:13.116Z,22.92
2016-03-05T06:46:13.133Z,22.91
2016-03-05T06:47:13.121Z,22.94
2016-03-05T06:48:13.140Z,22.86
2016-03-05T06:49:13.142Z,22.86
2016-03-05T06:50:13.145Z,22.85
2016-03-05T06:51:13.194Z,22.88
2016-03-05T06:52:13.150Z,22.94
2016-03-05T06:53:13.168Z,22.86
2016-03-05T06:54:13.171Z,23
2016-03-05T06:55:13.190Z,22.88
2016-03-05T06:56:13.177Z,22.9
2016-03-05T06:57:13.196Z,22.88
2016-03-05T06:58:13.213Z,22.88
2016-03-05T06:59:13.201Z,22.94
2016-03-05T07:00:13.218Z,22.94
2016-03-05T07:01:13.221Z,22.94
2016-03-05T07:02:13.240Z,22.92
2016-03-05T07:03:13.070Z,22.9
2016-03-05T07:04:13.246Z,22.9
2016-03-05T07:05:13.123Z,22.9
2016-03-05T07:06:13.251Z,22.86
2016-03-05T07:07:13.269Z,22.86
2016-03-05T07:08:13.256Z,22.85
2016-03-05T07:09:13.289Z,22.8
2016-03-05T07:10:13.277Z,22.86
2016-03-05T07:11:13.280Z,22.9
2016-03-05T07:12:13.283Z,22.88
2016-03-05T07:13:13.316Z,22.88
2016-03-05T07:14:13.303Z,22.83
2016-03-05T07:15:13.305Z,22.86
2016-03-05T07:16:13.308Z,22.85
2016-03-05T07:17:13.327Z,22.83
2016-03-05T07:18:13.330Z,22.85
2016-03-05T07:19:13.348Z,22.85
2016-03-05T07:20:13.336Z,22.82
2016-03-05T07:21:13.353Z,22.9
2016-03-05T07:22:13.355Z,22.82
2016-03-05T07:23:13.358Z,22.9
2016-03-05T07:24:13.361Z,22.86
2016-03-05T07:25:13.380Z,22.9
2016-03-05T07:26:13.382Z,22.86
2016-03-05T07:27:13.385Z,22.9
2016-03-05T07:28:13.388Z,22.88
2016-03-05T07:29:13.407Z,22.9
2016-03-05T07:30:13.393Z,22.86
2016-03-05T07:31:13.427Z,22.91
2016-03-05T07:32:13.429Z,22.92
2016-03-05T07:33:13.433Z,22.98
2016-03-05T07:34:13.420Z,22.98
2016-03-05T07:35:13.453Z,23
2016-03-05T07:36:13.440Z,23.2
2016-03-05T07:37:13.443Z,23.13
2016-03-05T07:38:13.461Z,23.31
2016-03-05T07:39:13.448Z,23.47
2016-03-05T07:40:13.467Z,23.65
2016-03-05T07:41:13.470Z,23.75
2016-03-05T07:42:13.489Z,23.87
2016-03-05T07:43:13.506Z,23.9
2016-03-05T07:44:13.509Z,24.1
2016-03-05T07:45:13.496Z,24.24
2016-03-05T07:46:13.499Z,24.28
2016-03-05T07:47:13.533Z,24.37
2016-03-05T07:48:13.519Z,24.49
2016-03-05T07:49:13.539Z,24.5
2016-03-05T07:50:13.525Z,24.71
2016-03-05T07:51:13.544Z,24.71
2016-03-05T07:52:13.546Z,24.69
2016-03-05T07:53:13.549Z,24.8
2016-03-05T07:54:13.567Z,24.88
2016-03-05T07:55:13.554Z,24.9
2016-03-05T07:56:13.572Z,24.91
2016-03-05T07:57:13.575Z,24.87
2016-03-05T07:58:13.594Z,24.9
2016-03-05T07:59:13.596Z,24.91
2016-03-05T08:00:13.615Z,24.96
2016-03-05T08:01:13.601Z,24.96
2016-03-05T08:02:13.636Z,25
2016-03-05T08:03:13.623Z,24.99
2016-03-05T08:04:13.641Z,25
2016-03-05T08:05:13.472Z,25.05
2016-03-05T08:06:13.632Z,24.98
2016-03-05T08:07:13.649Z,25.1
2016-03-05T08:08:13.652Z,25.05
2016-03-05T08:09:13.687Z,25.08
2016-03-05T08:10:13.674Z,25.14
2016-03-05T08:11:13.692Z,25.05
2016-03-05T08:12:13.679Z,25.03
2016-03-05T08:13:13.698Z,25.14
2016-03-05T08:14:13.700Z,25.1
2016-03-05T08:15:13.703Z,25.1
2016-03-05T08:16:13.706Z,25.08
2016-03-05T08:17:13.740Z,25.13
2016-03-05T08:18:13.727Z,25.09
2016-03-05T08:19:13.573Z,25.1
2016-03-05T08:20:13.747Z,25.05
2016-03-05T08:21:13.750Z,25
2016-03-05T08:22:13.753Z,25.03
2016-03-05T08:23:13.756Z,25.09
2016-03-05T08:24:13.774Z,25.05
2016-03-05T08:25:13.776Z,25.05
2016-03-05T08:26:13.795Z,24.96
2016-03-05T08:27:13.814Z,24.93
2016-03-05T08:28:13.800Z,24.91
2016-03-05T08:29:13.803Z,24.85
2016-03-05T08:30:13.821Z,24.91
2016-03-05T08:31:13.824Z,24.85
2016-03-05T08:32:13.827Z,24.83
2016-03-05T08:33:13.860Z,24.84
2016-03-05T08:34:13.848Z,24.8
2016-03-05T08:35:13.850Z,24.78
2016-03-05T08:36:13.853Z,24.8
2016-03-05T08:37:13.871Z,24.73
2016-03-05T08:38:13.874Z,24.71
2016-03-05T08:39:13.877Z,24.68
2016-03-05T08:40:13.895Z,24.64
2016-03-05T08:41:13.898Z,24.71
2016-03-05T08:42:13.901Z,24.71
2016-03-05T08:43:13.919Z,24.71
2016-03-05T08:44:13.921Z,24.55
2016-03-05T08:45:13.924Z,24.5
2016-03-05T08:46:13.927Z,24.6
2016-03-05T08:47:13.945Z,24.5
2016-03-05T08:48:13.963Z,24.53
2016-03-05T08:49:13.965Z,24.47
2016-03-05T08:50:13.969Z,24.49
2016-03-05T08:51:13.971Z,24.49
2016-03-05T08:52:13.974Z,24.49
2016-03-05T08:53:13.976Z,24.52
2016-03-05T08:54:13.995Z,24.47
2016-03-05T08:55:13.998Z,24.45
2016-03-05T08:56:13.844Z,24.5
2016-03-05T08:57:14.019Z,24.47
2016-03-05T08:58:14.022Z,24.47
2016-03-05T08:59:14.040Z,24.49
2016-03-05T09:00:14.042Z,24.45
2016-03-05T09:01:14.045Z,24.4
2016-03-05T09:02:14.048Z,24.35
2016-03-05T09:03:14.051Z,24.39
2016-03-05T09:04:14.069Z,24.39
2016-03-05T09:05:14.071Z,24.28
2016-03-05T09:06:14.090Z,24.43
2016-03-05T09:07:14.093Z,24.31
2016-03-05T09:08:14.096Z,24.28
2016-03-05T09:09:14.099Z,24.34
2016-03-05T09:10:13.976Z,24.3
2016-03-05T09:11:14.119Z,24.31
2016-03-05T09:12:14.121Z,24.28
2016-03-05T09:13:14.140Z,24.32
2016-03-05T09:14:14.143Z,24.28
2016-03-05T09:15:14.146Z,24.31
2016-03-05T09:16:14.148Z,24.28
2016-03-05T09:17:14.166Z,24.31
2016-03-05T09:18:14.168Z,24.28
2016-03-05T09:19:14.171Z,24.27
2016-03-05T09:20:14.206Z,24.32
2016-03-05T09:21:14.193Z,24.3
2016-03-05T09:22:14.211Z,24.28
2016-03-05T09:23:14.214Z,24.27
2016-03-05T09:24:14.217Z,24.25
2016-03-05T09:25:14.219Z,24.24
2016-03-05T09:26:14.237Z,24.25
2016-03-05T09:27:14.228Z,24.21
2016-03-05T09:28:14.232Z,24.24
2016-03-05T09:29:14.220Z,24.2
2016-03-05T09:30:14.209Z,24.22
2016-03-05T09:31:14.197Z,24.25
2016-03-05T09:32:14.194Z,24.27
2016-03-05T09:33:14.207Z,24.2
2016-03-05T09:34:14.205Z,24.28
2016-03-05T09:35:14.203Z,24.21
2016-03-05T09:36:14.216Z,24.18
2016-03-05T09:37:14.216Z,24.15
2016-03-05T09:38:14.217Z,24.16
2016-03-05T09:39:14.218Z,24.2
2016-03-05T09:40:14.218Z,24.2
2016-03-05T09:41:14.282Z,24.16
2016-03-05T09:42:14.252Z,24.18
2016-03-05T09:43:14.255Z,24.16
2016-03-05T09:44:14.273Z,24.18
2016-03-05T09:45:14.275Z,24.21
2016-03-05T09:46:14.262Z,24.15
2016-03-05T09:47:14.280Z,24.18
2016-03-05T09:48:14.298Z,24.21
2016-03-05T09:49:14.300Z,24.24
2016-03-05T09:50:14.302Z,24.21
2016-03-05T09:51:14.305Z,24.2
2016-03-05T09:52:14.308Z,24.2
2016-03-05T09:53:14.325Z,24.2
2016-03-05T09:54:14.344Z,24.15
2016-03-05T09:55:14.331Z,24.21
2016-03-05T09:56:14.366Z,24.24
2016-03-05T09:57:14.352Z,24.22
2016-03-05T09:58:14.371Z,24.25
2016-03-05T09:59:14.358Z,24.21
2016-03-05T10:00:14.377Z,24.22
2016-03-05T10:01:14.394Z,24.2
2016-03-05T10:02:14.396Z,24.22
2016-03-05T10:03:14.415Z,24.2
2016-03-05T10:04:14.402Z,24.22
2016-03-05T10:05:14.405Z,24.2
2016-03-05T10:06:14.424Z,24.2
2016-03-05T10:07:14.457Z,24.32
2016-03-05T10:08:14.429Z,24.24
2016-03-05T10:09:14.462Z,24.32
2016-03-05T10:10:14.449Z,24.39
2016-03-05T10:11:14.467Z,24.4
2016-03-05T10:12:14.471Z,24.27
2016-03-05T10:13:14.489Z,24.31
2016-03-05T10:14:14.476Z,24.31
2016-03-05T10:15:14.479Z,24.3
2016-03-05T10:16:14.513Z,24.35
2016-03-05T10:17:14.500Z,24.3
2016-03-05T10:18:14.502Z,24.25
2016-03-05T10:19:14.505Z,24.24
2016-03-05T10:20:14.539Z,24.28
2016-03-05T10:21:14.526Z,24.28
2016-03-05T10:22:14.545Z,24.24
2016-03-05T10:23:14.563Z,24.28
2016-03-05T10:24:14.597Z,24.27
2016-03-05T10:25:14.411Z,24.24
2016-03-05T10:26:14.571Z,24.3
2016-03-05T10:27:14.589Z,24.28
2016-03-05T10:28:14.577Z,24.32
2016-03-05T10:29:14.595Z,24.3
2016-03-05T10:30:14.597Z,24.3
2016-03-05T10:31:14.616Z,24.24
2016-03-05T10:32:14.602Z,24.28
2016-03-05T10:33:14.621Z,24.25
2016-03-05T10:34:14.623Z,24.34
2016-03-05T10:35:14.641Z,24.22
2016-03-05T10:36:14.644Z,24.27
2016-03-05T10:37:14.647Z,24.21
2016-03-05T10:38:14.666Z,24.22
2016-03-05T10:39:14.668Z,24.25
2016-03-05T10:40:14.671Z,24.27
2016-03-05T10:41:14.673Z,24.22
2016-03-05T10:42:14.692Z,24.24
2016-03-05T10:43:14.694Z,24.22
2016-03-05T10:44:14.698Z,24.27
2016-03-05T10:45:14.716Z,24.22
2016-03-05T10:46:14.718Z,24.21
2016-03-05T10:47:14.753Z,24.24
2016-03-05T10:48:14.755Z,24.25
2016-03-05T10:49:14.742Z,24.22
2016-03-05T10:50:14.745Z,24.22
2016-03-05T10:51:14.779Z,24.22
2016-03-05T10:52:14.766Z,24.25
2016-03-05T10:53:14.784Z,24.2
2016-03-05T10:54:14.787Z,24.21
2016-03-05T10:55:14.789Z,24.2
2016-03-05T10:56:14.808Z,24.15
2016-03-05T10:57:14.794Z,24.13
2016-03-05T10:58:14.798Z,24.1
2016-03-05T10:59:14.830Z,24.09
2016-03-05T11:00:14.834Z,24.09
2016-03-05T11:01:14.836Z,24.15
2016-03-05T11:02:14.824Z,24.1
2016-03-05T11:03:14.841Z,24.06
2016-03-05T11:04:14.860Z,24.12
2016-03-05T11:05:14.879Z,24.15
2016-03-05T11:06:14.882Z,24.1
2016-03-05T11:07:14.868Z,24.12
2016-03-05T11:08:14.888Z,24.16
2016-03-05T11:09:14.921Z,24.08
2016-03-05T11:10:14.892Z,24.13
2016-03-05T11:11:14.910Z,24.13
2016-03-05T11:12:14.944Z,23.76
2016-03-05T11:13:14.916Z,22.86
2016-03-05T11:14:14.918Z,22.97
2016-03-05T11:15:14.937Z,22.25
2016-03-05T11:16:14.940Z,21.83
2016-03-05T11:17:14.958Z,22.12
2016-03-05T11:18:14.945Z,22
2016-03-05T11:19:14.963Z,21.8
2016-03-05T11:20:14.950Z,21.77
2016-03-05T11:21:15.001Z,21.12
2016-03-05T11:22:14.956Z,21.25
2016-03-05T11:23:14.959Z,21.01
2016-03-05T11:24:14.961Z,20.82
2016-03-05T11:25:14.964Z,20.7
2016-03-05T11:26:14.966Z,20.82
2016-03-05T11:27:14.985Z,21.19
2016-03-05T11:28:14.971Z,21.09
2016-03-05T11:29:14.958Z,20.57
2016-03-05T11:30:14.962Z,20.57
2016-03-05T11:31:14.964Z,20.72
2016-03-05T11:32:14.967Z,20.54
2016-03-05T11:33:14.969Z,20.7
2016-03-05T11:34:14.972Z,20.7
2016-03-05T11:35:14.974Z,20.2
2016-03-05T11:36:14.821Z,19.99
2016-03-05T11:37:14.981Z,20.06
2016-03-05T11:38:14.968Z,19.66
2016-03-05T11:39:14.986Z,19.94
2016-03-05T11:40:14.957Z,20.32
2016-03-05T11:41:14.991Z,20.54
2016-03-05T11:42:14.962Z,20.47
2016-03-05T11:43:14.996Z,20.23
2016-03-05T11:44:14.968Z,20.02
2016-03-05T11:45:14.971Z,20.41
2016-03-05T11:46:14.974Z,20.11
2016-03-05T11:47:14.976Z,20.33
2016-03-05T11:48:14.979Z,20.41
2016-03-05T11:49:14.965Z,20.36
2016-03-05T11:50:14.985Z,20.32
2016-03-05T11:51:15.017Z,20.29
2016-03-05T11:52:14.959Z,20.26
2016-03-05T11:53:14.961Z,20.08
2016-03-05T11:54:14.979Z,20.32
2016-03-05T11:55:14.981Z,20.29
2016-03-05T11:56:14.984Z,20.29
2016-03-05T11:57:14.972Z,20.54
2016-03-05T11:58:14.958Z,20.61
2016-03-05T11:59:14.978Z,20.38
2016-03-05T12:00:14.980Z,20.18
2016-03-05T12:01:14.983Z,20.35
2016-03-05T12:02:14.969Z,20.28
2016-03-05T12:03:15.003Z,20.26
2016-03-05T12:04:14.975Z,20.35
2016-03-05T12:05:15.008Z,19.73
2016-03-05T12:06:14.997Z,20.33
2016-03-05T12:07:14.968Z,20.08
2016-03-05T12:08:14.971Z,20.35
2016-03-05T12:09:14.974Z,20.08
2016-03-05T12:10:14.976Z,20.2
2016-03-05T12:11:14.978Z,20.58
2016-03-05T12:12:14.965Z,20.42
2016-03-05T12:13:14.952Z,20.21
2016-03-05T12:14:14.970Z,19.96
2016-03-05T12:15:14.974Z,20.2
2016-03-05T12:16:14.960Z,20.18
2016-03-05T12:17:14.963Z,20.28
2016-03-05T12:18:14.950Z,20.51
2016-03-05T12:19:14.953Z,19.91
2016-03-05T12:20:14.956Z,20.1
2016-03-05T12:21:14.973Z,20.23
2016-03-05T12:22:14.962Z,20.39
2016-03-05T12:23:14.979Z,19.96
2016-03-05T12:24:14.967Z,19.94
2016-03-05T12:25:14.954Z,19.96
2016-03-05T12:26:14.956Z,19.99
2016-03-05T12:27:14.958Z,19.98
2016-03-05T12:28:14.961Z,19.94
2016-03-05T12:29:14.948Z,19.98
2016-03-05T12:30:14.951Z,20.08
2016-03-05T12:31:14.939Z,19.95
2016-03-05T12:32:14.941Z,19.96
2016-03-05T12:33:14.881Z,20.41
2016-03-05T12:34:14.961Z,20.18
2016-03-05T12:35:14.949Z,20.14
2016-03-05T12:36:14.967Z,19.99
2016-03-05T12:37:14.938Z,19.95
2016-03-05T12:38:14.942Z,19.92
2016-03-05T12:39:14.960Z,19.95
2016-03-05T12:40:14.947Z,20.06
2016-03-05T12:41:14.934Z,19.99
2016-03-05T12:42:14.952Z,19.95
2016-03-05T12:43:14.924Z,20.28
2016-03-05T12:44:14.942Z,19.86
2016-03-05T12:45:14.929Z,20.08
2016-03-05T12:46:14.932Z,19.96
2016-03-05T12:47:14.935Z,19.91
2016-03-05T12:48:14.937Z,19.99
2016-03-05T12:49:14.940Z,19.5
2016-03-05T12:50:14.942Z,19.5
2016-03-05T12:51:14.930Z,19.51
2016-03-05T12:52:14.932Z,19.69
2016-03-05T12:53:14.934Z,19.96
2016-03-05T12:54:14.954Z,20.05
2016-03-05T12:55:14.925Z,20.06
2016-03-05T12:56:14.928Z,20.02
2016-03-05T12:57:14.914Z,20.39
2016-03-05T12:58:14.917Z,20.35